Time;durP1;ratioP1;P1;durP2;ratioP2;P2;SDS_P1;SDS_P2;PMS_P1;PMS_P2;Temp;Humidity;BMP_temperature;BMP_pressure;BME280_temperature;BME280_humidity;BME280_pressure;Samples;Min_cycle;Max_cycle;Signal;HPM_P1;HPM_P2
2022/09/18 00:00:38;;;;;;;0.22;0.22;;;;;;;18.95;81.04;98322.84;5050752;28;20035;-84
2022/09/18 00:03:03;;;;;;;0.28;0.28;;;;;;;19.06;80.80;98345.25;5050753;28;20033;-84
2022/09/18 00:05:29;;;;;;;1.25;1.15;;;;;;;18.99;81.16;98347.53;5050777;28;20033;-84
2022/09/18 00:07:54;;;;;;;0.10;0.10;;;;;;;18.90;81.21;98342.84;5049893;28;20033;-84
2022/09/18 00:10:20;;;;;;;1.25;1.10;;;;;;;18.95;81.17;98375.41;5050863;28;20031;-84
2022/09/18 00:12:45;;;;;;;1.90;1.52;;;;;;;18.73;81.31;98360.00;5051057;28;20029;-84
2022/09/18 00:15:11;;;;;;;0.50;0.50;;;;;;;18.91;81.50;98373.94;5050796;28;20033;-84
2022/09/18 00:17:37;;;;;;;0.45;0.45;;;;;;;18.85;81.96;98369.03;5050822;28;20028;-83
2022/09/18 00:20:03;;;;;;;0.90;0.90;;;;;;;18.77;81.80;98353.50;5050944;28;20029;-83
2022/09/18 00:22:29;;;;;;;3.72;1.95;;;;;;;18.88;81.61;98350.97;5050973;28;20032;-84
2022/09/18 00:24:54;;;;;;;1.45;1.15;;;;;;;18.69;81.96;98330.00;5050545;28;20503;-84
2022/09/18 00:27:20;;;;;;;0.55;0.55;;;;;;;18.89;82.08;98354.47;5050710;28;20067;-84
2022/09/18 00:29:45;;;;;;;16.55;1.75;;;;;;;18.58;82.76;98321.88;5051084;28;20396;-84
2022/09/18 00:32:11;;;;;;;0.17;0.17;;;;;;;18.82;82.47;98358.53;5050877;28;20029;-84
2022/09/18 00:34:38;;;;;;;1.73;1.63;;;;;;;18.74;82.92;98353.72;5050087;28;20660;-84
2022/09/18 00:37:03;;;;;;;0.77;0.57;;;;;;;18.30;84.54;98325.59;5050786;28;20119;-84
2022/09/18 00:39:29;;;;;;;18.83;2.90;;;;;;;18.52;83.61;98319.63;5050356;28;20522;-84
2022/09/18 00:41:54;;;;;;;0.90;0.88;;;;;;;18.35;83.02;98308.31;5050554;28;20531;-84
2022/09/18 00:44:32;;;;;;;1.10;1.05;;;;;;;18.36;83.22;98349.19;5050659;28;20506;-84
2022/09/18 00:47:14;;;;;;;0.65;0.65;;;;;;;18.30;83.59;98369.16;5050550;28;20098;-84
2022/09/18 00:49:51;;;;;;;0.68;0.68;;;;;;;18.02;84.44;98371.00;5050708;28;20461;-83
2022/09/18 00:52:20;;;;;;;1.67;0.90;;;;;;;17.69;86.24;98320.75;5050617;28;20033;-83
2022/09/18 00:54:53;;;;;;;1.10;0.95;;;;;;;18.01;86.43;98369.31;5050373;28;20499;-83
2022/09/18 00:57:23;;;;;;;1.40;1.27;;;;;;;17.66;89.51;98364.44;5050528;28;20029;-84
2022/09/18 00:59:51;;;;;;;0.25;0.25;;;;;;;17.43;93.49;98349.09;5050903;28;20094;-84
2022/09/18 01:02:17;;;;;;;2.58;2.00;;;;;;;17.93;90.44;98360.94;5050066;28;20086;-83
2022/09/18 01:04:43;;;;;;;1.08;0.75;;;;;;;17.82;90.51;98358.09;5050023;28;20043;-83
2022/09/18 01:07:46;;;;;;;0.30;0.30;;;;;;;17.99;89.16;98355.19;5050711;28;20520;-83
2022/09/18 01:10:39;;;;;;;0.47;0.47;;;;;;;18.12;88.59;98362.38;5050311;28;20523;-83
2022/09/18 01:13:12;;;;;;;0.20;0.20;;;;;;;18.12;87.28;98328.56;5050463;28;20487;-84
2022/09/18 01:15:47;;;;;;;2.65;1.65;;;;;;;18.13;87.23;98358.78;5050318;28;20033;-84
2022/09/18 01:18:31;;;;;;;0.57;0.57;;;;;;;17.64;89.79;98354.81;5050005;28;20040;-84
2022/09/18 01:21:13;;;;;;;0.15;0.15;;;;;;;17.59;90.90;98365.78;5053284;28;20079;-83
2022/09/18 01:24:19;;;;;;;0.55;0.55;;;;;;;17.43;90.93;98344.63;5054407;28;20039;-84
2022/09/18 01:26:54;;;;;;;2.72;1.90;;;;;;;17.20;93.25;98363.91;5053845;28;20055;-83
2022/09/18 01:29:46;;;;;;;5.00;1.42;;;;;;;17.11;93.27;98336.84;5053629;28;20119;-84
2022/09/18 01:32:21;;;;;;;3.47;1.05;;;;;;;17.62;91.54;98388.75;5053856;28;20561;-83
2022/09/18 01:35:00;;;;;;;1.05;1.02;;;;;;;17.41;93.06;98380.31;5053280;28;20580;-83
2022/09/18 01:37:38;;;;;;;1.08;0.70;;;;;;;17.54;93.38;98390.09;5054145;28;20032;-83
2022/09/18 01:40:12;;;;;;;2.72;2.03;;;;;;;17.60;91.94;98388.84;5054254;28;20459;-83
2022/09/18 01:42:39;;;;;;;1.30;1.20;;;;;;;17.52;92.92;98394.66;5053764;28;20032;-83
2022/09/18 01:45:10;;;;;;;1.88;1.75;;;;;;;17.51;93.55;98381.44;5053289;28;20029;-83
2022/09/18 01:47:44;;;;;;;0.77;0.77;;;;;;;17.58;92.68;98368.56;5053218;28;20044;-84
2022/09/18 01:50:11;;;;;;;2.00;1.90;;;;;;;17.47;94.58;98391.47;5053303;28;20041;-83
2022/09/18 01:52:59;;;;;;;6.95;2.10;;;;;;;17.16;98.20;98390.72;5035837;28;20556;-83
2022/09/18 01:55:28;;;;;;;1.83;1.55;;;;;;;17.13;99.14;98366.06;5053072;28;20045;-83
2022/09/18 01:58:02;;;;;;;0.57;0.57;;;;;;;17.07;100.00;98367.34;5053216;28;20087;-83
2022/09/18 02:00:29;;;;;;;0.57;0.57;;;;;;;17.12;100.00;98375.03;5053114;28;20036;-83
2022/09/18 02:03:12;;;;;;;3.03;2.20;;;;;;;17.19;100.00;98379.00;5053021;28;20037;-84
2022/09/18 02:06:05;;;;;;;2.65;2.42;;;;;;;17.46;100.00;98388.88;5052794;28;20050;-84
2022/09/18 02:08:37;;;;;;;2.58;2.00;;;;;;;17.32;100.00;98360.44;5053173;28;20033;-84
2022/09/18 02:11:07;;;;;;;2.05;1.95;;;;;;;17.62;100.00;98359.41;5052943;28;20439;-84
2022/09/18 02:13:43;;;;;;;2.05;1.52;;;;;;;17.72;100.00;98345.38;5053416;28;20082;-84
2022/09/18 02:16:43;;;;;;;1.85;1.75;;;;;;;18.23;99.68;98386.56;5052481;28;20033;-83
2022/09/18 02:19:16;;;;;;;4.10;3.63;;;;;;;18.19;99.21;98372.53;5026134;28;20041;-83
2022/09/18 02:21:44;;;;;;;5.32;4.50;;;;;;;18.02;100.00;98379.00;5053502;28;20032;-83
2022/09/18 02:24:14;;;;;;;4.93;4.47;;;;;;;18.24;100.00;98390.91;5052717;28;20087;-83
2022/09/18 02:26:40;;;;;;;5.18;3.53;;;;;;;18.14;100.00;98393.34;5050128;28;20025;-83
2022/09/18 02:29:10;;;;;;;11.35;5.70;;;;;;;18.29;100.00;98410.16;5034391;28;20037;-84
2022/09/18 02:31:37;;;;;;;3.47;2.67;;;;;;;18.02;100.00;98396.84;5051776;28;20033;-84
2022/09/18 02:34:03;;;;;;;9.95;5.43;;;;;;;18.18;100.00;98396.66;5052351;28;20503;-84
2022/09/18 02:36:50;;;;;;;7.93;5.18;;;;;;;18.27;100.00;98396.03;5052540;28;20028;-83
2022/09/18 02:39:59;;;;;;;6.03;3.92;;;;;;;18.27;100.00;98396.03;5052905;28;20175;-83
2022/09/18 02:42:38;;;;;;;3.88;2.72;;;;;;;18.34;100.00;98401.84;5052212;28;20128;-83
2022/09/18 02:45:30;;;;;;;9.38;4.75;;;;;;;18.39;99.89;98402.38;5052390;28;20029;-84
2022/09/18 02:48:32;;;;;;;5.57;4.57;;;;;;;18.49;98.56;98416.84;5033339;28;20445;-84
2022/09/18 02:51:05;;;;;;;5.85;5.32;;;;;;;18.70;96.50;98419.84;5052156;28;20037;-84
2022/09/18 02:53:44;;;;;;;6.55;5.90;;;;;;;18.80;96.05;98425.41;5052583;28;20033;-83
2022/09/18 02:56:30;;;;;;;6.85;5.32;;;;;;;18.54;95.77;98445.88;5052398;28;20059;-84
2022/09/18 02:59:14;;;;;;;3.08;2.80;;;;;;;18.61;96.32;98461.41;5051429;28;20044;-83
2022/09/18 03:01:43;;;;;;;7.03;4.40;;;;;;;18.42;96.39;98435.06;5052105;28;20116;-83
2022/09/18 03:04:14;;;;;;;7.78;4.50;;;;;;;18.33;95.25;98426.81;5051791;28;20025;-83
2022/09/18 03:06:40;;;;;;;30.60;5.03;;;;;;;18.46;96.45;98458.88;5051843;28;20036;-83
2022/09/18 03:09:06;;;;;;;5.85;4.78;;;;;;;18.40;96.56;98470.84;5051825;28;20407;-83
2022/09/18 03:11:31;;;;;;;5.53;3.88;;;;;;;18.29;97.48;98490.25;5052014;28;20419;-83
2022/09/18 03:13:57;;;;;;;5.00;4.53;;;;;;;18.25;98.87;98496.72;5051570;28;20041;-83
2022/09/18 03:16:22;;;;;;;5.03;3.95;;;;;;;17.84;100.00;98479.75;5051955;28;20604;-84
2022/09/18 03:18:48;;;;;;;3.40;3.13;;;;;;;17.74;100.00;98499.97;5051443;28;20029;-83
2022/09/18 03:21:13;;;;;;;5.60;4.03;;;;;;;17.91;100.00;98525.59;5051649;28;20163;-82
2022/09/18 03:23:39;;;;;;;4.70;4.30;;;;;;;17.64;100.00;98514.81;5051551;28;20513;-83
2022/09/18 03:26:05;;;;;;;2.58;2.35;;;;;;;17.56;100.00;98528.63;5051498;28;20028;-84
2022/09/18 03:28:31;;;;;;;2.17;2.08;;;;;;;17.68;100.00;98543.00;5051523;28;20191;-84
2022/09/18 03:30:56;;;;;;;5.93;4.80;;;;;;;17.50;100.00;98518.34;5051764;28;20094;-83
2022/09/18 03:33:22;;;;;;;3.85;2.63;;;;;;;17.71;100.00;98538.34;5051005;28;20507;-84
2022/09/18 03:35:47;;;;;;;4.53;3.92;;;;;;;17.64;100.00;98523.69;5033062;28;20414;-84
2022/09/18 03:38:13;;;;;;;3.85;3.55;;;;;;;17.79;100.00;98540.53;5051545;28;20116;-85
2022/09/18 03:40:42;;;;;;;6.97;4.30;;;;;;;17.77;100.00;98554.94;5051602;28;20438;-85
2022/09/18 03:43:07;;;;;;;5.60;4.10;;;;;;;17.62;100.00;98538.06;5051148;28;20048;-84
2022/09/18 03:45:33;;;;;;;4.20;3.65;;;;;;;17.69;100.00;98550.91;5051520;28;20439;-84
2022/09/18 03:47:58;;;;;;;7.15;3.17;;;;;;;17.74;100.00;98557.78;5050967;28;20032;-83
2022/09/18 03:50:24;;;;;;;12.25;5.63;;;;;;;17.70;100.00;98573.97;5051346;28;20025;-83
2022/09/18 03:52:49;;;;;;;10.88;2.45;;;;;;;17.54;100.00;98565.19;5051615;28;20055;-83
2022/09/18 03:55:15;;;;;;;3.38;2.60;;;;;;;17.62;100.00;98594.91;5050452;28;20116;-83
2022/09/18 03:57:40;;;;;;;1.70;1.60;;;;;;;17.69;100.00;98609.59;5051288;28;20036;-83
2022/09/18 04:00:06;;;;;;;0.93;0.90;;;;;;;17.72;100.00;98603.22;5032980;28;20044;-83
2022/09/18 04:02:32;;;;;;;2.60;0.80;;;;;;;17.48;100.00;98606.41;5051027;28;20037;-83
2022/09/18 04:04:57;;;;;;;0.82;0.82;;;;;;;17.33;100.00;98626.00;5050370;28;20036;-83
2022/09/18 04:07:23;;;;;;;3.08;0.60;;;;;;;16.90;98.88;98625.84;5050562;28;20031;-83
2022/09/18 04:09:49;;;;;;;0.50;0.50;;;;;;;16.46;92.96;98632.75;5051013;28;20025;-83
2022/09/18 04:12:14;;;;;;;1.67;1.58;;;;;;;16.19;89.95;98643.09;5050676;28;20025;-83
2022/09/18 04:14:40;;;;;;;1.30;1.05;;;;;;;15.89;88.59;98671.28;5032643;28;20041;-82
2022/09/18 04:17:05;;;;;;;2.05;1.75;;;;;;;15.74;88.71;98669.41;5051432;28;20128;-82
2022/09/18 04:19:30;;;;;;;0.95;0.95;;;;;;;15.66;87.74;98685.78;5050311;28;20407;-82
2022/09/18 04:21:56;;;;;;;1.85;0.45;;;;;;;15.53;86.47;98666.91;5029706;28;20033;-83
2022/09/18 04:24:21;;;;;;;1.45;1.35;;;;;;;15.17;85.79;98683.81;5050292;28;20109;-83
2022/09/18 04:26:48;;;;;;;0.52;0.52;;;;;;;15.25;84.97;98714.44;5050711;28;20202;-83
2022/09/18 04:29:13;;;;;;;5.38;2.75;;;;;;;14.98;83.70;98707.75;5048071;28;20025;-82
2022/09/18 04:31:38;;;;;;;0.68;0.68;;;;;;;14.48;82.04;98687.13;5041332;28;20055;-84
2022/09/18 04:34:04;;;;;;;0.45;0.45;;;;;;;14.73;81.99;98720.50;5045715;28;20031;-83
2022/09/18 04:36:30;;;;;;;1.25;1.10;;;;;;;14.70;81.32;98723.28;5046937;28;20086;-84
2022/09/18 04:38:55;;;;;;;0.30;0.30;;;;;;;14.29;78.72;98701.22;5011748;28;20511;-85
2022/09/18 04:41:21;;;;;;;;;;;;;;;14.41;79.01;98720.16;5005845;28;20026;-84
2022/09/18 04:43:46;;;;;;;4.47;1.13;;;;;;;14.08;77.34;98681.00;5006412;28;20020;-84
2022/09/18 04:46:12;;;;;;;2.17;1.77;;;;;;;14.50;77.54;98746.25;5006751;28;20400;-85
2022/09/18 04:48:37;;;;;;;;;;;;;;;14.39;75.71;98754.72;5002769;28;20050;-83
2022/09/18 04:51:03;;;;;;;0.13;0.13;;;;;;;14.20;74.62;98722.03;5008586;28;19968;-84
2022/09/18 04:53:28;;;;;;;0.20;0.20;;;;;;;14.25;74.07;98722.66;5001624;28;20857;-84
2022/09/18 04:55:53;;;;;;;0.30;0.30;;;;;;;14.35;74.93;98729.28;5011923;28;20041;-84
2022/09/18 04:58:19;;;;;;;;;;;;;;;14.70;73.48;98763.09;5009925;28;20488;-84
2022/09/18 05:00:49;;;;;;;0.20;0.20;;;;;;;14.63;72.54;98736.84;5013114;28;19979;-84
2022/09/18 05:03:16;;;;;;;0.38;0.38;;;;;;;14.58;72.31;98722.03;5012146;28;20022;-83
2022/09/18 05:05:42;;;;;;;0.47;0.47;;;;;;;14.70;69.98;98712.66;5013728;28;20030;-86
2022/09/18 05:08:07;;;;;;;1.42;1.15;;;;;;;14.98;71.48;98758.22;5004855;28;20515;-82
2022/09/18 05:10:34;;;;;;;0.30;0.30;;;;;;;15.06;70.37;98768.47;5014253;28;20042;-84
2022/09/18 05:13:00;;;;;;;0.50;0.50;;;;;;;15.14;70.47;98784.03;5003284;28;20034;-85
2022/09/18 05:15:25;;;;;;;0.20;0.20;;;;;;;15.31;68.25;98792.03;5013602;28;20029;-85
2022/09/18 05:17:58;;;;;;;;;;;;;;;15.51;69.19;98814.13;5008996;28;20056;-83
2022/09/18 05:20:23;;;;;;;0.30;0.30;;;;;;;15.36;67.65;98781.19;4995024;28;19957;-81
2022/09/18 05:22:49;;;;;;;0.10;0.10;;;;;;;15.65;66.60;98805.47;5002049;28;20519;-81
2022/09/18 05:25:14;;;;;;;0.17;0.17;;;;;;;15.85;67.51;98826.63;5014265;28;20029;-81
2022/09/18 05:27:40;;;;;;;0.20;0.20;;;;;;;15.95;67.78;98799.56;5008006;28;20026;-82
2022/09/18 05:30:06;;;;;;;0.47;0.47;;;;;;;16.01;68.30;98791.28;5013817;28;20052;-83
2022/09/18 05:32:32;;;;;;;0.10;0.10;;;;;;;16.22;69.11;98835.38;5006470;28;20030;-82
2022/09/18 05:34:57;;;;;;;0.35;0.35;;;;;;;16.25;67.87;98829.91;5013238;28;20416;-81
2022/09/18 05:37:23;;;;;;;0.50;0.50;;;;;;;15.85;64.22;98821.31;5013438;28;20030;-81
2022/09/18 05:39:48;;;;;;;1.85;0.15;;;;;;;15.92;64.99;98843.97;5014420;28;20465;-81
2022/09/18 05:42:14;;;;;;;0.25;0.25;;;;;;;15.77;64.14;98826.16;5014195;28;20026;-82
2022/09/18 05:44:39;;;;;;;0.10;0.10;;;;;;;15.66;63.47;98841.72;5014514;28;20496;-81
2022/09/18 05:47:04;;;;;;;0.35;0.35;;;;;;;15.62;62.72;98824.22;5014108;28;20041;-82
2022/09/18 05:49:30;;;;;;;0.17;0.17;;;;;;;15.73;62.32;98844.00;5012950;28;20049;-81
2022/09/18 05:51:55;;;;;;;0.57;0.57;;;;;;;15.88;62.67;98868.13;5014114;28;20033;-81
2022/09/18 05:54:21;;;;;;;0.73;0.73;;;;;;;15.93;61.20;98882.94;5013253;28;20030;-81
2022/09/18 05:56:46;;;;;;;0.90;0.90;;;;;;;15.83;61.50;98860.38;5013748;28;20022;-81
2022/09/18 05:59:12;;;;;;;0.65;0.65;;;;;;;15.79;60.10;98881.94;4995695;28;20048;-81
2022/09/18 06:01:38;;;;;;;0.10;0.10;;;;;;;15.84;59.94;98899.34;5013635;28;20061;-81
2022/09/18 06:04:04;;;;;;;0.20;0.20;;;;;;;16.23;59.65;98908.94;5013435;28;20416;-81
2022/09/18 06:06:30;;;;;;;0.10;0.10;;;;;;;16.29;58.03;98887.31;5012203;28;20034;-82
2022/09/18 06:08:55;;;;;;;0.32;0.32;;;;;;;16.40;57.81;98909.88;5013489;28;20423;-81
2022/09/18 06:11:21;;;;;;;0.40;0.40;;;;;;;16.27;56.04;98901.69;5012839;28;20108;-81
2022/09/18 06:13:48;;;;;;;0.10;0.10;;;;;;;16.60;55.06;98932.81;5013321;28;20038;-81
2022/09/18 06:16:14;;;;;;;0.20;0.20;;;;;;;16.75;55.22;98932.00;5013679;28;20037;-81
2022/09/18 06:18:40;;;;;;;0.20;0.20;;;;;;;16.77;55.90;98918.63;5012868;28;20117;-80
2022/09/18 06:21:05;;;;;;;0.20;0.20;;;;;;;16.87;53.94;98935.88;5012672;28;20112;-80
2022/09/18 06:23:31;;;;;;;0.10;0.10;;;;;;;16.79;54.84;98954.88;5012995;28;20530;-81
2022/09/18 06:26:05;;;;;;;0.55;0.55;;;;;;;16.49;54.72;98941.34;5012941;28;20037;-81
2022/09/18 06:28:31;;;;;;;0.10;0.10;;;;;;;16.46;56.40;98984.09;4995852;28;20061;-81
2022/09/18 06:30:59;;;;;;;0.20;0.20;;;;;;;16.39;55.42;98966.69;5012911;28;20543;-82
2022/09/18 06:33:25;;;;;;;0.10;0.10;;;;;;;16.60;56.11;98968.28;5013045;28;20036;-82
2022/09/18 06:35:51;;;;;;;0.38;0.38;;;;;;;16.67;53.82;98983.94;5012854;28;20034;-80
2022/09/18 06:38:16;;;;;;;0.10;0.10;;;;;;;16.73;54.93;98955.22;5012599;28;20095;-81
2022/09/18 06:40:52;;;;;;;0.47;0.47;;;;;;;16.84;54.81;98981.28;5013010;28;20030;-81
2022/09/18 06:43:18;;;;;;;0.73;0.50;;;;;;;17.13;54.48;98966.44;5012729;28;20092;-80
2022/09/18 06:45:50;;;;;;;0.10;0.10;;;;;;;16.95;53.93;99002.06;5013032;28;20034;-80
2022/09/18 06:48:16;;;;;;;0.10;0.10;;;;;;;16.43;52.89;99000.22;5012078;28;20042;-80
2022/09/18 06:50:41;;;;;;;0.93;0.20;;;;;;;16.60;54.73;98978.06;5012948;28;20516;-80
2022/09/18 06:53:07;;;;;;;0.10;0.10;;;;;;;16.81;53.03;99006.25;5012927;28;20523;-87
2022/09/18 06:55:32;;;;;;;0.10;0.10;;;;;;;16.95;54.02;99018.91;4979049;28;20496;-82
2022/09/18 06:57:59;;;;;;;0.25;0.25;;;;;;;16.85;51.82;98998.97;4994653;28;20129;-82
2022/09/18 07:00:25;;;;;;;0.10;0.10;;;;;;;17.16;51.34;99037.34;5012742;28;20451;-80
2022/09/18 07:02:58;;;;;;;0.52;0.52;;;;;;;17.35;50.99;99034.59;5011009;28;20034;-81
2022/09/18 07:05:28;;;;;;;0.45;0.45;;;;;;;17.20;50.13;99030.09;5012619;28;20061;-81
2022/09/18 07:07:54;;;;;;;0.10;0.10;;;;;;;17.48;51.10;99040.13;5011593;28;20053;-80
2022/09/18 07:10:20;;;;;;;0.40;0.40;;;;;;;17.39;50.79;99037.94;5006031;28;20492;-81
2022/09/18 07:12:47;;;;;;;0.10;0.10;;;;;;;17.78;50.90;99066.94;5012456;28;20073;-81
2022/09/18 07:15:17;;;;;;;1.23;1.13;;;;;;;17.66;49.41;99024.94;5011607;28;20025;-80
2022/09/18 07:17:43;;;;;;;0.40;0.40;;;;;;;17.77;50.03;99032.34;5011411;28;20112;-80
2022/09/18 07:20:10;;;;;;;32.13;2.38;;;;;;;17.88;49.00;99064.63;5011413;28;20495;-81
2022/09/18 07:22:36;;;;;;;0.20;0.20;;;;;;;17.46;50.19;99015.38;5012231;28;20041;-80
2022/09/18 07:25:03;;;;;;;0.40;0.40;;;;;;;17.82;50.24;99046.28;5012182;28;20029;-80
2022/09/18 07:27:28;;;;;;;0.20;0.20;;;;;;;17.72;49.54;99029.94;5012245;28;20026;-80
2022/09/18 07:29:55;;;;;;;0.17;0.17;;;;;;;17.72;49.25;99032.59;5011806;28;20032;-80
2022/09/18 07:32:22;;;;;;;0.10;0.10;;;;;;;17.89;50.62;99047.72;5012085;28;20075;-81
2022/09/18 07:34:47;;;;;;;5.07;1.88;;;;;;;17.85;49.20;99054.13;5012110;28;20514;-81
2022/09/18 07:37:13;;;;;;;0.10;0.10;;;;;;;17.81;50.42;99013.44;5011863;28;20117;-82
2022/09/18 07:39:38;;;;;;;0.73;0.73;;;;;;;17.81;49.75;99042.78;5012058;28;20034;-81
2022/09/18 07:42:04;;;;;;;0.20;0.20;;;;;;;17.43;52.02;99045.69;5011754;28;20030;-81
2022/09/18 07:44:33;;;;;;;0.20;0.20;;;;;;;16.88;51.72;99024.63;5011605;28;20097;-82
2022/09/18 07:46:58;;;;;;;0.30;0.25;;;;;;;16.81;53.01;99042.69;5011860;28;20033;-81
2022/09/18 07:49:24;;;;;;;0.28;0.17;;;;;;;17.06;54.19;99063.63;5011495;28;20049;-82
2022/09/18 07:51:49;;;;;;;0.13;0.13;;;;;;;16.39;55.11;99025.25;5011694;28;20587;-82
2022/09/18 07:54:15;;;;;;;0.38;0.38;;;;;;;16.55;53.71;99047.53;5011604;28;20389;-82
2022/09/18 07:56:40;;;;;;;0.30;0.30;;;;;;;16.88;52.12;99036.13;5011342;28;20532;-81
2022/09/18 07:59:09;;;;;;;0.13;0.13;;;;;;;17.23;52.50;99068.09;5011486;28;20495;-81
2022/09/18 08:01:36;;;;;;;5.43;0.98;;;;;;;17.20;51.43;99072.72;5011573;28;20030;-80
2022/09/18 08:04:02;;;;;;;0.82;0.82;;;;;;;17.07;52.53;99056.50;5011126;28;20112;-80
2022/09/18 08:06:29;;;;;;;1.33;1.33;;;;;;;17.31;52.40;99068.53;5011448;28;20487;-80
2022/09/18 08:08:55;;;;;;;0.10;0.10;;;;;;;17.39;52.02;99049.47;5011782;28;20084;-80
2022/09/18 08:11:21;;;;;;;0.10;0.10;;;;;;;17.30;54.08;99056.16;5011455;28;20088;-81
2022/09/18 08:13:49;;;;;;;0.20;0.20;;;;;;;17.12;53.05;99034.00;5010039;28;20037;-79
2022/09/18 08:16:14;;;;;;;0.30;0.30;;;;;;;17.33;51.92;99063.13;4993709;28;20487;-80
2022/09/18 08:18:40;;;;;;;0.20;0.20;;;;;;;17.03;51.28;99014.97;5011187;28;20117;-80
2022/09/18 08:21:06;;;;;;;0.40;0.40;;;;;;;17.47;53.16;99062.38;5011703;28;20030;-80
2022/09/18 08:23:32;;;;;;;0.20;0.20;;;;;;;17.84;52.38;99087.06;5011391;28;20022;-80
2022/09/18 08:26:02;;;;;;;1.08;1.00;;;;;;;17.63;50.67;99078.44;5011254;28;20040;-82
2022/09/18 08:28:28;;;;;;;0.20;0.20;;;;;;;17.02;51.91;99077.19;5010900;28;20073;-82
2022/09/18 08:30:55;;;;;;;0.20;0.20;;;;;;;17.33;54.14;99068.44;5011053;28;20412;-82
2022/09/18 08:33:21;;;;;;;0.10;0.10;;;;;;;17.30;53.50;99080.16;5011437;28;20040;-81
2022/09/18 08:35:46;;;;;;;0.20;0.20;;;;;;;17.02;53.97;99086.03;5011217;28;20038;-81
2022/09/18 08:38:12;;;;;;;0.75;0.55;;;;;;;16.88;54.04;99102.72;5011064;28;20132;-82
2022/09/18 08:41:19;;;;;;;0.22;0.22;;;;;;;16.65;53.79;99082.53;5011158;28;20109;-83
2022/09/18 08:44:10;;;;;;;0.10;0.10;;;;;;;16.83;53.81;99116.22;5005456;28;20070;-85
2022/09/18 08:47:08;;;;;;;0.25;0.25;;;;;;;16.99;54.16;99110.16;5011009;28;20025;-84
2022/09/18 08:49:43;;;;;;;0.17;0.17;;;;;;;16.48;53.21;99109.97;5010721;28;20054;-82
2022/09/18 08:52:16;;;;;;;;;;;;;;;16.69;53.44;99131.19;5011583;28;20034;-81
2022/09/18 08:54:48;;;;;;;1.85;0.55;;;;;;;16.13;53.76;99082.41;5008866;28;20367;-83
2022/09/18 08:57:16;;;;;;;0.20;0.20;;;;;;;16.79;54.14;99129.78;5011012;28;20072;-83
2022/09/18 09:00:11;;;;;;;0.20;0.20;;;;;;;16.71;53.33;99113.31;5010758;28;20064;-83
2022/09/18 09:02:44;;;;;;;0.10;0.10;;;;;;;16.47;53.11;99118.94;5005211;28;20038;-81
2022/09/18 09:05:15;;;;;;;0.50;0.50;;;;;;;16.21;54.25;99090.91;5010763;28;20044;-80
2022/09/18 09:07:44;;;;;;;0.32;0.32;;;;;;;16.45;53.06;99134.97;5010959;28;20112;-82
2022/09/18 09:10:30;;;;;;;0.45;0.45;;;;;;;16.46;52.46;99127.84;5010857;28;20434;-80
2022/09/18 09:12:55;;;;;;;;;;;;;;;16.56;53.05;99130.91;5009687;28;20408;-81
2022/09/18 09:15:36;;;;;;;0.65;0.65;;;;;;;16.68;53.42;99142.78;5010566;28;19914;-82
2022/09/18 09:18:17;;;;;;;0.20;0.20;;;;;;;16.42;53.30;99123.59;5010675;28;20029;-81
2022/09/18 09:20:56;;;;;;;0.40;0.40;;;;;;;16.55;53.46;99119.41;5010863;28;20480;-80
2022/09/18 09:23:40;;;;;;;0.40;0.40;;;;;;;16.16;51.77;99087.56;5010878;28;20035;-81
2022/09/18 09:26:11;;;;;;;0.10;0.10;;;;;;;16.59;52.68;99123.66;5010697;28;20026;-81
2022/09/18 09:28:49;;;;;;;1.45;0.32;;;;;;;16.67;52.51;99143.69;5010646;28;20045;-82
2022/09/18 09:31:19;;;;;;;0.20;0.20;;;;;;;16.70;51.53;99147.09;5010712;28;20029;-80
2022/09/18 09:34:02;;;;;;;0.20;0.20;;;;;;;16.83;51.06;99136.69;5010443;28;20113;-82
2022/09/18 09:36:29;;;;;;;0.20;0.20;;;;;;;16.94;50.88;99123.72;5010788;28;20121;-81
2022/09/18 09:39:14;;;;;;;0.10;0.10;;;;;;;17.15;51.08;99142.25;5010756;28;20446;-81
2022/09/18 09:41:48;;;;;;;0.73;0.73;;;;;;;17.11;51.09;99116.69;5011962;28;20408;-82
2022/09/18 09:44:27;;;;;;;1.85;1.75;;;;;;;17.44;50.79;99113.19;5014024;28;20041;-81
2022/09/18 09:47:11;;;;;;;0.10;0.10;;;;;;;17.74;49.43;99137.41;5014137;28;20022;-81
2022/09/18 09:49:50;;;;;;;0.35;0.35;;;;;;;17.68;50.09;99108.38;5013256;28;20528;-82
2022/09/18 09:52:24;;;;;;;0.15;0.15;;;;;;;17.84;49.32;99121.75;5013770;28;20030;-81
2022/09/18 09:54:55;;;;;;;;;;;;;;;17.93;50.03;99129.28;5014122;28;20104;-82
2022/09/18 09:57:27;;;;;;;0.20;0.20;;;;;;;17.55;48.63;99108.19;5013818;28;20016;-81
2022/09/18 10:00:01;;;;;;;0.10;0.10;;;;;;;17.78;50.25;99138.97;5013632;28;20100;-81
2022/09/18 10:02:38;;;;;;;0.20;0.20;;;;;;;17.75;50.19;99135.59;5013723;28;20022;-81
2022/09/18 10:05:33;;;;;;;0.28;0.28;;;;;;;17.99;49.82;99144.97;5013429;28;20057;-83
2022/09/18 10:08:06;;;;;;;0.43;0.43;;;;;;;18.20;50.15;99144.75;4996204;28;20049;-81
2022/09/18 10:11:00;;;;;;;0.17;0.17;;;;;;;18.21;51.00;99139.34;5013330;28;20459;-82
2022/09/18 10:13:38;;;;;;;0.10;0.10;;;;;;;18.17;45.62;99135.09;5013429;28;20030;-81
2022/09/18 10:16:14;;;;;;;0.10;0.10;;;;;;;17.99;45.96;99123.63;5013434;28;20041;-82
2022/09/18 10:18:46;;;;;;;0.20;0.20;;;;;;;18.00;46.96;99119.16;5012364;28;20484;-83
2022/09/18 10:21:15;;;;;;;0.10;0.10;;;;;;;18.42;44.88;99120.38;5000881;28;20045;-81
2022/09/18 10:23:49;;;;;;;0.13;0.13;;;;;;;18.57;44.96;99135.53;4992681;28;20031;-82
2022/09/18 10:26:38;;;;;;;2.28;1.55;;;;;;;18.45;45.02;99130.03;4993622;28;20026;-82
2022/09/18 10:29:05;;;;;;;0.10;0.10;;;;;;;18.55;46.13;99125.88;4993375;28;20030;-82
2022/09/18 10:31:51;;;;;;;0.10;0.10;;;;;;;18.71;44.82;99131.22;4993493;28;20110;-80
2022/09/18 10:34:40;;;;;;;2.60;1.55;;;;;;;18.59;44.82;99138.13;4991497;28;20066;-82
2022/09/18 10:37:15;;;;;;;0.50;0.50;;;;;;;18.94;46.46;99137.94;4993694;28;20026;-80
2022/09/18 10:39:50;;;;;;;0.10;0.10;;;;;;;19.10;43.91;99148.59;5004131;28;20092;-81
2022/09/18 10:42:21;;;;;;;0.40;0.40;;;;;;;18.89;43.86;99114.16;4995477;28;20030;-82
2022/09/18 10:44:53;;;;;;;0.20;0.20;;;;;;;19.13;44.62;99138.56;5012916;28;20427;-81
2022/09/18 10:47:27;;;;;;;0.10;0.10;;;;;;;18.88;44.94;99111.56;5012760;28;20026;-84
2022/09/18 10:50:01;;;;;;;0.15;0.15;;;;;;;19.12;44.21;99142.22;5011866;28;20132;-82
2022/09/18 10:52:35;;;;;;;0.65;0.28;;;;;;;19.27;44.69;99145.75;5011951;28;20041;-83
2022/09/18 10:55:11;;;;;;;0.77;0.77;;;;;;;19.30;42.89;99096.59;5010882;28;20064;-82
2022/09/18 10:57:57;;;;;;;0.10;0.10;;;;;;;19.32;42.90;99142.81;5012851;28;20030;-82
2022/09/18 11:00:23;;;;;;;0.60;0.50;;;;;;;19.39;43.83;99149.53;4980279;28;20083;-83
2022/09/18 11:03:02;;;;;;;0.70;0.70;;;;;;;19.33;42.03;99123.16;5013456;28;20065;-80
2022/09/18 11:05:32;;;;;;;0.57;0.20;;;;;;;19.68;41.48;99118.34;5015289;28;20033;-80
2022/09/18 11:08:00;;;;;;;1.50;1.38;;;;;;;19.46;40.38;99136.63;5013659;28;20042;-80
2022/09/18 11:10:31;;;;;;;0.20;0.20;;;;;;;19.25;40.38;99112.06;5012229;28;20049;-79
2022/09/18 11:13:02;;;;;;;0.10;0.10;;;;;;;19.70;42.20;99128.94;5012286;28;20112;-81
2022/09/18 11:15:30;;;;;;;0.40;0.40;;;;;;;19.87;41.18;99140.47;5011995;28;20033;-81
2022/09/18 11:18:00;;;;;;;0.00;0.00;;;;;;;19.33;39.58;99142.72;5012049;28;20043;-79
2022/09/18 11:20:29;;;;;;;0.30;0.30;;;;;;;19.29;39.29;99138.53;5012411;28;20029;-80
2022/09/18 11:23:14;;;;;;;0.65;0.35;;;;;;;19.40;41.67;99140.56;5012045;28;20030;-81
2022/09/18 11:25:40;;;;;;;0.10;0.10;;;;;;;19.59;41.05;99147.47;5012072;28;20088;-81
2022/09/18 11:28:20;;;;;;;0.22;0.22;;;;;;;19.49;39.77;99136.44;5012121;28;20029;-80
2022/09/18 11:31:04;;;;;;;0.10;0.10;;;;;;;19.38;40.35;99152.28;5012045;28;20084;-82
2022/09/18 11:33:39;;;;;;;0.10;0.10;;;;;;;19.66;40.27;99156.81;5010380;28;20511;-82
2022/09/18 11:36:08;;;;;;;0.10;0.10;;;;;;;20.07;40.71;99166.81;5011916;28;20496;-81
2022/09/18 11:38:40;;;;;;;0.10;0.10;;;;;;;19.88;38.70;99145.72;5012350;28;20558;-82
2022/09/18 11:41:07;;;;;;;0.45;0.40;;;;;;;19.63;40.49;99141.84;5012221;28;20030;-82
2022/09/18 11:43:39;;;;;;;0.30;0.20;;;;;;;19.71;39.75;99144.03;5011746;28;20034;-82
2022/09/18 11:46:24;;;;;;;1.17;0.30;;;;;;;19.84;40.08;99147.69;5011500;28;20553;-82
2022/09/18 11:48:52;;;;;;;0.20;0.20;;;;;;;19.97;40.90;99161.19;5010271;28;20428;-82
2022/09/18 11:51:43;;;;;;;0.10;0.10;;;;;;;19.95;40.73;99170.28;5006351;28;20078;-81